Terminal Aerodrome Forecast
Issued by NWS Des Moines, IA

Home | Current Version | Previous Version | Text Only | Print | Product List | Glossary On
Versions: 1 2 3 4 5 6 7 8 9 10 11 12 13 14 15 16 17 18 19 20 21 22 23 24 25 26 27 28 29
907
FTUS43 KDMX 291731
TAFALO
TAF
KALO 291731Z 2918/3018 06015G23KT P6SM VCSH SCT070 OVC100
     FM300000 06017G24KT P6SM OVC026
     FM300400 06015G24KT P6SM VCSH OVC019
     FM301200 06017G25KT P6SM VCSH OVC009=

USA.gov is the U.S. government's official web portal to all federal, state and local government web resources and services.